Weather at Aalborg Airport

Public forecast

Using degrees Celsius for public forecast. Weather courtesy of forecast.io.

Current aviation weather report (METAR) for Aalborg Airport

2024/05/28 03:15 (retrieved 9 minutes ago)

EKYT 280315Z AUTO 07001KT 0200 R08L/P1500N R26R/0275D BCFG BKN018/// 11/11 Q1015

Closest aviation forecast (TAF) to Aalborg Airport

Forecast is more than 6 hours old.

Closest forecast is Dortmund Airport, 343.8 nm (636.8 km) SSW.

2024/05/27 21:00 (retrieved 6 hours ago)

TAF TAF EDLW 272150Z 2721/2818 CNL